Time;durP1;ratioP1;P1;durP2;ratioP2;P2;SDS_P1;SDS_P2;PMS_P1;PMS_P2;Temp;Humidity;BMP_temperature;BMP_pressure;BME280_temperature;BME280_humidity;BME280_pressure;Samples;Min_cycle;Max_cycle;Signal;HPM_P1;HPM_P2
2023/03/04 00:01:23;;;;;;;81.72;34.55;;;;;;;;;;5029873;22;20060;-73
2023/03/04 00:03:50;;;;;;;79.75;33.83;;;;;;;;;;5025303;28;20122;-81
2023/03/04 00:06:18;;;;;;;76.60;33.83;;;;;;;;;;5021315;28;20133;-76
2023/03/04 00:08:44;;;;;;;68.95;30.60;;;;;;;;;;5014196;28;20429;-77
2023/03/04 00:11:11;;;;;;;76.88;33.40;;;;;;;;;;5021233;28;20054;-76
2023/03/04 00:13:37;;;;;;;76.25;36.42;;;;;;;;;;5021849;28;20049;-76
2023/03/04 00:16:05;;;;;;;84.97;35.53;;;;;;;;;;5023129;28;20505;-76
2023/03/04 00:18:31;;;;;;;78.18;34.08;;;;;;;;;;5021244;28;20049;-76
2023/03/04 00:20:58;;;;;;;82.30;33.28;;;;;;;;;;5021689;28;20045;-76
2023/03/04 00:23:26;;;;;;;80.68;34.22;;;;;;;;;;5019067;28;20657;-76
2023/03/04 00:25:52;;;;;;;81.90;35.22;;;;;;;;;;5023733;28;20121;-75
2023/03/04 00:28:19;;;;;;;81.15;34.80;;;;;;;;;;5016019;28;20100;-76
2023/03/04 00:30:46;;;;;;;81.43;35.22;;;;;;;;;;5015685;28;20046;-77
2023/03/04 00:33:12;;;;;;;70.93;31.35;;;;;;;;;;5014518;28;20132;-76
2023/03/04 00:35:39;;;;;;;79.70;33.03;;;;;;;;;;5014857;28;20042;-76
2023/03/04 00:38:06;;;;;;;77.68;31.80;;;;;;;;;;5015618;28;20068;-75
2023/03/04 00:40:34;;;;;;;64.72;30.08;;;;;;;;;;5014555;28;20046;-75
2023/03/04 00:43:00;;;;;;;77.32;33.42;;;;;;;;;;5015085;28;20052;-75
2023/03/04 00:45:27;;;;;;;76.38;32.38;;;;;;;;;;5018021;28;20522;-75
2023/03/04 00:47:54;;;;;;;74.65;32.90;;;;;;;;;;5036000;28;20130;-76
2023/03/04 00:50:20;;;;;;;72.93;31.45;;;;;;;;;;5042331;28;20055;-75
2023/03/04 00:52:47;;;;;;;78.15;32.58;;;;;;;;;;5043439;28;20049;-76
2023/03/04 00:55:13;;;;;;;71.72;32.80;;;;;;;;;;5033283;28;20046;-75
2023/03/04 00:57:41;;;;;;;73.60;31.83;;;;;;;;;;5022736;28;20524;-75
2023/03/04 01:00:09;;;;;;;80.65;31.95;;;;;;;;;;5036175;28;20507;-77
2023/03/04 01:02:36;;;;;;;74.63;32.47;;;;;;;;;;5035014;28;20547;-76
2023/03/04 01:05:03;;;;;;;70.65;32.78;;;;;;;;;;5034838;28;20077;-76
2023/03/04 01:07:30;;;;;;;71.38;31.55;;;;;;;;;;5020868;28;20141;-76
2023/03/04 01:09:56;;;;;;;68.38;32.22;;;;;;;;;;5034822;28;20136;-75
2023/03/04 01:12:23;;;;;;;83.03;35.13;;;;;;;;;;5034398;28;20042;-75
2023/03/04 01:14:51;;;;;;;73.60;32.38;;;;;;;;;;5034188;28;20052;-76
2023/03/04 01:17:18;;;;;;;78.05;35.40;;;;;;;;;;5026248;28;20460;-75
2023/03/04 01:19:45;;;;;;;79.00;33.83;;;;;;;;;;4994875;28;20043;-76
2023/03/04 01:22:13;;;;;;;76.32;31.95;;;;;;;;;;4995497;28;20082;-76
2023/03/04 01:24:44;;;;;;;80.13;32.50;;;;;;;;;;4995102;28;20097;-77
2023/03/04 01:27:10;;;;;;;77.23;32.43;;;;;;;;;;4999086;28;20038;-75
2023/03/04 01:29:37;;;;;;;78.45;32.65;;;;;;;;;;5029595;28;20291;-76
2023/03/04 01:32:05;;;;;;;76.28;32.45;;;;;;;;;;5034146;28;20045;-76
2023/03/04 01:34:32;;;;;;;82.15;33.35;;;;;;;;;;5034403;28;20045;-77
2023/03/04 01:36:59;;;;;;;75.10;32.80;;;;;;;;;;5034000;28;20053;-76
2023/03/04 01:39:25;;;;;;;79.60;34.60;;;;;;;;;;5025426;28;20052;-77
2023/03/04 01:41:52;;;;;;;75.00;32.70;;;;;;;;;;5034303;28;20137;-76
2023/03/04 01:44:19;;;;;;;73.88;31.80;;;;;;;;;;5033799;28;20514;-76
2023/03/04 01:46:49;;;;;;;73.88;31.45;;;;;;;;;;5033229;28;20051;-76
2023/03/04 01:49:20;;;;;;;72.10;32.45;;;;;;;;;;5028774;28;20156;-75
2023/03/04 01:51:54;;;;;;;72.18;30.70;;;;;;;;;;5020805;28;20042;-74
2023/03/04 01:54:22;;;;;;;77.40;33.17;;;;;;;;;;5016835;28;20515;-75
2023/03/04 01:56:51;;;;;;;75.05;30.83;;;;;;;;;;5013609;28;20108;-76
2023/03/04 01:59:20;;;;;;;72.28;30.75;;;;;;;;;;5018393;28;20458;-76
2023/03/04 02:01:49;;;;;;;70.45;30.83;;;;;;;;;;5033181;28;20496;-77
2023/03/04 02:04:18;;;;;;;78.63;33.53;;;;;;;;;;5033344;28;20500;-76
2023/03/04 02:06:46;;;;;;;73.53;32.22;;;;;;;;;;5025782;28;20073;-74
2023/03/04 02:09:13;;;;;;;72.10;29.98;;;;;;;;;;5023704;28;20053;-75
2023/03/04 02:11:40;;;;;;;69.20;29.38;;;;;;;;;;5015195;28;20042;-76
2023/03/04 02:14:07;;;;;;;69.18;30.30;;;;;;;;;;5016240;28;20137;-76
2023/03/04 02:16:34;;;;;;;72.32;31.70;;;;;;;;;;5019994;28;20506;-75
2023/03/04 02:19:02;;;;;;;65.57;30.60;;;;;;;;;;5032528;28;20654;-75
2023/03/04 02:21:31;;;;;;;73.65;29.92;;;;;;;;;;5016126;28;20080;-75
2023/03/04 02:24:06;;;;;;;66.32;29.88;;;;;;;;;;5017853;28;20129;-75
2023/03/04 02:26:35;;;;;;;71.15;31.17;;;;;;;;;;5016250;28;20064;-75
2023/03/04 02:29:02;;;;;;;70.82;31.10;;;;;;;;;;5029195;28;20080;-75
2023/03/04 02:31:32;;;;;;;68.75;31.30;;;;;;;;;;5002282;28;20074;-75
2023/03/04 02:37:21;;;;;;;63.67;29.73;;;;;;;;;;5011811;28;20071;-74
2023/03/04 02:39:49;;;;;;;65.13;29.80;;;;;;;;;;5023281;28;20050;-74
2023/03/04 02:42:18;;;;;;;66.60;30.65;;;;;;;;;;5037664;28;20128;-76
2023/03/04 02:44:48;;;;;;;63.58;29.13;;;;;;;;;;5043655;28;20054;-76
2023/03/04 02:47:17;;;;;;;70.57;30.65;;;;;;;;;;5043016;28;20064;-76
2023/03/04 02:49:44;;;;;;;71.00;30.33;;;;;;;;;;5041814;28;20621;-75
2023/03/04 02:52:15;;;;;;;67.13;31.05;;;;;;;;;;5020899;28;20052;-74
2023/03/04 02:54:42;;;;;;;66.32;29.33;;;;;;;;;;5017447;28;20052;-75
2023/03/04 02:57:11;;;;;;;68.97;29.85;;;;;;;;;;5018187;28;20056;-75
2023/03/04 02:59:40;;;;;;;61.72;28.20;;;;;;;;;;5015419;28;20042;-75
2023/03/04 03:02:08;;;;;;;71.30;31.00;;;;;;;;;;5022905;28;20054;-75
2023/03/04 03:04:36;;;;;;;63.22;29.88;;;;;;;;;;5015099;28;20423;-74
2023/03/04 03:07:03;;;;;;;72.35;30.45;;;;;;;;;;5014163;28;20108;-74
2023/03/04 03:09:30;;;;;;;68.15;31.15;;;;;;;;;;5014337;28;20054;-76
2023/03/04 03:11:56;;;;;;;77.15;32.55;;;;;;;;;;5022075;28;20496;-75
2023/03/04 03:14:23;;;;;;;63.42;28.77;;;;;;;;;;5014369;28;20084;-75
2023/03/04 03:16:51;;;;;;;65.80;29.30;;;;;;;;;;5014397;28;20132;-75
2023/03/04 03:19:17;;;;;;;72.45;32.00;;;;;;;;;;5013607;28;20133;-75
2023/03/04 03:21:44;;;;;;;64.85;29.00;;;;;;;;;;5014259;28;20046;-75
2023/03/04 03:24:11;;;;;;;68.93;29.90;;;;;;;;;;5029998;28;20056;-76
2023/03/04 03:26:38;;;;;;;69.43;29.80;;;;;;;;;;5033888;28;20088;-75
2023/03/04 03:29:05;;;;;;;73.78;31.00;;;;;;;;;;5023655;28;20058;-75
2023/03/04 03:31:31;;;;;;;71.35;30.77;;;;;;;;;;5013834;28;20050;-75
2023/03/04 03:33:59;;;;;;;72.97;30.95;;;;;;;;;;5020113;28;20515;-75
2023/03/04 03:36:26;;;;;;;80.13;31.88;;;;;;;;;;5012423;28;20046;-74
2023/03/04 03:38:52;;;;;;;67.32;29.55;;;;;;;;;;5013535;28;20049;-75
2023/03/04 03:41:19;;;;;;;67.90;30.73;;;;;;;;;;5016322;28;20053;-75
2023/03/04 03:43:46;;;;;;;69.95;29.67;;;;;;;;;;5021544;28;20502;-74
2023/03/04 03:46:12;;;;;;;71.65;31.20;;;;;;;;;;5036494;28;20442;-75
2023/03/04 03:48:39;;;;;;;64.97;29.55;;;;;;;;;;5037412;28;20051;-74
2023/03/04 03:51:07;;;;;;;68.90;30.60;;;;;;;;;;5044845;28;20049;-74
2023/03/04 03:53:33;;;;;;;79.75;32.92;;;;;;;;;;5035766;28;20050;-75
2023/03/04 03:56:00;;;;;;;71.30;30.95;;;;;;;;;;5043688;28;20136;-74
2023/03/04 03:58:26;;;;;;;69.53;30.15;;;;;;;;;;5033460;28;20590;-75
2023/03/04 04:00:53;;;;;;;70.40;29.95;;;;;;;;;;5019979;28;20046;-75
2023/03/04 04:03:20;;;;;;;64.93;30.75;;;;;;;;;;5020261;28;20069;-75
2023/03/04 04:05:47;;;;;;;65.90;29.25;;;;;;;;;;5029903;28;20076;-75
2023/03/04 04:08:15;;;;;;;68.35;29.45;;;;;;;;;;5017801;28;20077;-75
2023/03/04 04:10:43;;;;;;;66.38;29.23;;;;;;;;;;5016178;28;20050;-75
2023/03/04 04:13:09;;;;;;;65.28;28.40;;;;;;;;;;5015735;28;20042;-74
2023/03/04 04:15:37;;;;;;;65.80;31.05;;;;;;;;;;5023057;28;20097;-74
2023/03/04 04:18:04;;;;;;;63.40;29.88;;;;;;;;;;5015531;28;20111;-75
2023/03/04 04:20:30;;;;;;;61.10;29.83;;;;;;;;;;5015328;28;20046;-75
2023/03/04 04:22:57;;;;;;;64.57;29.80;;;;;;;;;;5015706;28;20045;-75
2023/03/04 04:25:25;;;;;;;66.35;30.75;;;;;;;;;;5023097;28;20067;-75
2023/03/04 04:27:51;;;;;;;68.25;30.48;;;;;;;;;;5015629;28;20052;-76
2023/03/04 04:30:18;;;;;;;71.68;31.35;;;;;;;;;;5015640;28;20050;-76
2023/03/04 04:32:45;;;;;;;68.10;31.60;;;;;;;;;;5015223;28;20049;-75
2023/03/04 04:35:11;;;;;;;66.90;29.27;;;;;;;;;;5022519;28;20129;-75
2023/03/04 04:37:38;;;;;;;66.70;29.13;;;;;;;;;;5015518;28;20711;-76
2023/03/04 04:40:06;;;;;;;63.63;28.45;;;;;;;;;;5015248;28;20132;-75
2023/03/04 04:42:34;;;;;;;68.07;30.50;;;;;;;;;;5016191;28;20052;-74
2023/03/04 04:45:01;;;;;;;70.00;30.83;;;;;;;;;;5017761;28;20053;-76
2023/03/04 04:47:27;;;;;;;65.50;28.75;;;;;;;;;;5020940;28;20480;-75
2023/03/04 04:49:54;;;;;;;64.10;29.83;;;;;;;;;;5014833;28;20056;-74
2023/03/04 04:52:20;;;;;;;64.78;30.08;;;;;;;;;;5015087;28;20128;-74
2023/03/04 04:54:47;;;;;;;60.17;30.55;;;;;;;;;;5014961;28;20046;-75
2023/03/04 04:57:14;;;;;;;64.30;28.48;;;;;;;;;;5033167;28;20096;-74
2023/03/04 04:59:42;;;;;;;62.80;27.88;;;;;;;;;;5033980;28;20128;-74
2023/03/04 05:02:08;;;;;;;63.17;28.80;;;;;;;;;;5034782;28;20046;-74
2023/03/04 05:04:35;;;;;;;72.03;30.65;;;;;;;;;;5035017;28;20060;-75
2023/03/04 05:07:02;;;;;;;65.25;29.55;;;;;;;;;;5028229;28;20136;-74
2023/03/04 05:09:28;;;;;;;56.83;27.30;;;;;;;;;;5014904;28;20045;-74
2023/03/04 05:11:55;;;;;;;64.82;28.80;;;;;;;;;;5018018;28;20053;-74
2023/03/04 05:14:21;;;;;;;67.18;30.83;;;;;;;;;;5017470;28;20076;-74
2023/03/04 05:16:51;;;;;;;68.15;30.10;;;;;;;;;;5021023;28;20081;-74
2023/03/04 05:19:18;;;;;;;67.10;29.60;;;;;;;;;;5021849;28;20057;-75
2023/03/04 05:21:45;;;;;;;64.05;29.83;;;;;;;;;;5017381;28;20133;-74
2023/03/04 05:24:11;;;;;;;63.67;28.73;;;;;;;;;;5017511;28;20060;-74
2023/03/04 05:26:38;;;;;;;62.60;28.25;;;;;;;;;;5022923;28;20120;-75
2023/03/04 05:29:05;;;;;;;63.30;28.60;;;;;;;;;;5028821;28;20080;-75
2023/03/04 05:31:31;;;;;;;64.97;29.35;;;;;;;;;;5036413;28;20096;-75
2023/03/04 05:33:59;;;;;;;60.97;27.55;;;;;;;;;;5036330;28;20049;-75
2023/03/04 05:36:26;;;;;;;63.20;27.27;;;;;;;;;;5035512;28;20065;-75
2023/03/04 05:38:53;;;;;;;63.58;27.33;;;;;;;;;;5033330;28;20534;-75
2023/03/04 05:41:21;;;;;;;57.70;27.73;;;;;;;;;;5035956;28;20046;-76
2023/03/04 05:43:48;;;;;;;59.80;28.10;;;;;;;;;;5036030;28;20045;-76
2023/03/04 05:46:16;;;;;;;57.78;27.05;;;;;;;;;;5035685;28;20129;-76
2023/03/04 05:48:43;;;;;;;61.83;28.25;;;;;;;;;;5026936;28;20121;-76
2023/03/04 05:51:11;;;;;;;64.30;30.30;;;;;;;;;;5035484;28;20115;-75
2023/03/04 05:53:39;;;;;;;61.15;27.75;;;;;;;;;;5035504;28;20069;-76
2023/03/04 05:56:09;;;;;;;62.28;28.55;;;;;;;;;;5034296;28;20049;-75
2023/03/04 05:58:36;;;;;;;56.80;26.63;;;;;;;;;;5026254;28;20087;-76
2023/03/04 06:01:03;;;;;;;61.53;27.27;;;;;;;;;;5033822;28;20045;-76
2023/03/04 06:03:30;;;;;;;63.08;28.00;;;;;;;;;;5034478;28;20140;-75
2023/03/04 06:05:56;;;;;;;63.35;28.20;;;;;;;;;;5043166;22;20052;-79
2023/03/04 06:08:24;;;;;;;59.38;28.17;;;;;;;;;;5022509;28;20486;-78
2023/03/04 06:10:53;;;;;;;64.57;27.58;;;;;;;;;;5036245;28;20100;-78
2023/03/04 06:13:20;;;;;;;63.97;27.13;;;;;;;;;;5036042;28;20124;-79
2023/03/04 06:15:47;;;;;;;61.70;28.40;;;;;;;;;;5036180;28;20037;-79
2023/03/04 06:18:14;;;;;;;64.15;28.73;;;;;;;;;;5035361;28;20311;-79
2023/03/04 06:20:41;;;;;;;65.97;28.70;;;;;;;;;;5035054;28;20149;-79
2023/03/04 06:23:07;;;;;;;57.97;26.75;;;;;;;;;;5015991;28;20052;-79
2023/03/04 06:25:35;;;;;;;59.85;27.83;;;;;;;;;;5015897;28;20053;-80
2023/03/04 06:28:02;;;;;;;60.20;27.55;;;;;;;;;;5031506;28;20587;-79
2023/03/04 06:30:29;;;;;;;57.60;26.77;;;;;;;;;;5015754;28;20140;-80
2023/03/04 06:32:56;;;;;;;58.53;27.85;;;;;;;;;;5017543;28;20084;-79
2023/03/04 06:35:22;;;;;;;58.90;26.52;;;;;;;;;;5016311;28;20046;-79
2023/03/04 06:37:49;;;;;;;68.20;28.95;;;;;;;;;;5016907;28;20073;-79
2023/03/04 06:40:16;;;;;;;59.35;25.30;;;;;;;;;;5017112;28;20042;-79
2023/03/04 06:42:44;;;;;;;60.60;28.00;;;;;;;;;;5017563;28;20129;-78
2023/03/04 06:45:11;;;;;;;58.13;26.15;;;;;;;;;;5017363;28;20054;-79
2023/03/04 06:47:38;;;;;;;59.17;28.95;;;;;;;;;;5024533;28;20048;-78
2023/03/04 06:50:06;;;;;;;59.03;26.88;;;;;;;;;;5054937;28;20041;-78
2023/03/04 06:52:32;;;;;;;67.35;27.75;;;;;;;;;;5055702;28;20042;-78
2023/03/04 06:54:59;;;;;;;63.95;28.23;;;;;;;;;;5051785;28;20091;-79
2023/03/04 06:57:26;;;;;;;61.33;26.73;;;;;;;;;;5036338;28;20124;-78
2023/03/04 06:59:54;;;;;;;59.47;27.20;;;;;;;;;;5016370;28;20085;-79
2023/03/04 07:02:21;;;;;;;60.50;27.80;;;;;;;;;;5018623;28;20054;-79
2023/03/04 07:04:47;;;;;;;60.95;28.35;;;;;;;;;;5019427;28;20132;-80
2023/03/04 07:07:14;;;;;;;61.58;28.20;;;;;;;;;;5022360;28;20050;-78
2023/03/04 07:09:41;;;;;;;60.55;27.75;;;;;;;;;;5027016;28;20065;-80
2023/03/04 07:12:07;;;;;;;63.88;27.55;;;;;;;;;;5018905;28;20133;-80
2023/03/04 07:14:34;;;;;;;59.33;27.75;;;;;;;;;;5018007;28;20075;-81
2023/03/04 07:17:02;;;;;;;62.55;26.85;;;;;;;;;;5018080;28;20077;-78
2023/03/04 07:19:29;;;;;;;57.40;28.67;;;;;;;;;;5024947;28;20038;-78
2023/03/04 07:21:55;;;;;;;65.93;28.63;;;;;;;;;;5016864;28;20142;-79
2023/03/04 07:24:22;;;;;;;60.67;29.70;;;;;;;;;;5015824;28;20133;-77
2023/03/04 07:26:48;;;;;;;62.08;29.38;;;;;;;;;;5013482;28;20053;-76
2023/03/04 07:29:15;;;;;;;67.82;28.23;;;;;;;;;;5022315;28;20049;-79
2023/03/04 07:31:42;;;;;;;62.35;28.58;;;;;;;;;;5014073;28;20133;-78
2023/03/04 07:34:13;;;;;;;64.70;29.20;;;;;;;;;;5014558;28;20465;-76
2023/03/04 07:36:41;;;;;;;69.40;28.85;;;;;;;;;;5016277;28;20065;-79
2023/03/04 07:39:10;;;;;;;59.03;28.40;;;;;;;;;;5034979;28;20141;-78
2023/03/04 07:41:36;;;;;;;67.43;28.23;;;;;;;;;;5037391;28;20435;-79
2023/03/04 07:44:05;;;;;;;67.22;29.38;;;;;;;;;;5038614;28;20045;-80
2023/03/04 07:46:32;;;;;;;64.65;29.13;;;;;;;;;;5035501;28;20576;-79
2023/03/04 07:48:59;;;;;;;55.75;28.13;;;;;;;;;;5035497;28;20053;-78
2023/03/04 07:51:27;;;;;;;64.03;29.83;;;;;;;;;;5017682;28;20114;-78
2023/03/04 07:53:56;;;;;;;59.10;26.75;;;;;;;;;;5013180;28;20104;-77
2023/03/04 07:56:26;;;;;;;59.90;27.95;;;;;;;;;;5013088;28;20057;-76
2023/03/04 07:58:53;;;;;;;64.88;30.50;;;;;;;;;;5025331;28;20120;-80
2023/03/04 08:01:21;;;;;;;62.67;29.17;;;;;;;;;;5025619;28;20412;-78
2023/03/04 08:03:48;;;;;;;69.93;30.17;;;;;;;;;;5013829;28;20060;-78
2023/03/04 08:06:16;;;;;;;63.55;29.17;;;;;;;;;;5017360;28;20089;-79
2023/03/04 08:08:44;;;;;;;63.97;28.25;;;;;;;;;;5016187;28;20046;-78
2023/03/04 08:11:13;;;;;;;59.63;28.63;;;;;;;;;;5034479;28;20081;-77
2023/03/04 08:13:40;;;;;;;65.63;30.50;;;;;;;;;;5018284;28;20049;-78
2023/03/04 08:16:07;;;;;;;64.70;30.50;;;;;;;;;;5017553;28;20049;-81
2023/03/04 08:18:34;;;;;;;65.97;29.65;;;;;;;;;;5019593;28;20046;-80
2023/03/04 08:21:01;;;;;;;63.25;28.92;;;;;;;;;;5014293;28;20146;-78
2023/03/04 08:23:28;;;;;;;62.15;29.45;;;;;;;;;;5014784;28;20401;-78
2023/03/04 08:25:57;;;;;;;60.70;29.30;;;;;;;;;;5016404;28;20167;-78
2023/03/04 08:28:24;;;;;;;60.13;28.20;;;;;;;;;;5021690;28;20046;-78
2023/03/04 08:30:53;;;;;;;60.78;27.92;;;;;;;;;;5022398;28;20096;-80
2023/03/04 08:33:20;;;;;;;63.45;28.92;;;;;;;;;;5025356;28;20049;-78
2023/03/04 08:35:49;;;;;;;65.40;28.08;;;;;;;;;;5023942;28;20054;-79
2023/03/04 08:38:22;;;;;;;67.30;29.85;;;;;;;;;;5023646;28;20057;-78
2023/03/04 08:40:53;;;;;;;61.15;29.05;;;;;;;;;;5033023;28;20049;-79
2023/03/04 08:43:25;;;;;;;62.50;27.65;;;;;;;;;;5038553;28;20069;-78
2023/03/04 08:45:52;;;;;;;59.60;27.27;;;;;;;;;;5024397;28;20077;-80
2023/03/04 08:48:19;;;;;;;60.33;28.33;;;;;;;;;;5024475;28;20105;-79
2023/03/04 08:50:47;;;;;;;62.60;29.90;;;;;;;;;;5029210;28;20121;-80
2023/03/04 08:53:15;;;;;;;61.65;27.80;;;;;;;;;;5031710;28;20050;-80
2023/03/04 08:55:43;;;;;;;60.00;27.48;;;;;;;;;;5026086;28;20110;-79
2023/03/04 08:58:10;;;;;;;64.45;29.48;;;;;;;;;;5026395;28;20046;-80
2023/03/04 09:00:41;;;;;;;62.50;29.05;;;;;;;;;;5023541;28;20042;-79
2023/03/04 09:03:10;;;;;;;59.75;28.30;;;;;;;;;;5024756;28;20104;-79
2023/03/04 09:05:37;;;;;;;61.08;27.15;;;;;;;;;;5020213;28;20053;-78
2023/03/04 09:08:04;;;;;;;60.25;28.30;;;;;;;;;;5017228;28;20088;-78
2023/03/04 09:10:31;;;;;;;59.13;26.70;;;;;;;;;;5017042;28;20049;-78
2023/03/04 09:12:58;;;;;;;64.10;28.50;;;;;;;;;;5018653;28;20106;-79
2023/03/04 09:15:25;;;;;;;59.90;28.52;;;;;;;;;;5026343;28;20065;-80
2023/03/04 09:17:53;;;;;;;61.00;27.83;;;;;;;;;;5034236;28;20046;-80
2023/03/04 09:20:20;;;;;;;60.00;26.95;;;;;;;;;;5034050;28;20081;-80
2023/03/04 09:22:46;;;;;;;63.45;28.48;;;;;;;;;;5046817;28;20028;-79
2023/03/04 09:25:15;;;;;;;62.15;29.60;;;;;;;;;;5046862;28;20060;-81
2023/03/04 09:27:41;;;;;;;57.97;27.45;;;;;;;;;;5041188;28;20055;-80
2023/03/04 09:30:10;;;;;;;61.22;29.15;;;;;;;;;;5045040;28;20068;-80
2023/03/04 09:32:38;;;;;;;54.85;25.63;;;;;;;;;;5034943;28;20170;-80
2023/03/04 09:35:07;;;;;;;59.60;27.17;;;;;;;;;;5023409;28;20046;-86
2023/03/04 09:37:34;;;;;;;57.45;26.02;;;;;;;;;;5023756;28;20042;-80
2023/03/04 09:40:00;;;;;;;57.55;27.33;;;;;;;;;;5021940;28;20088;-80
2023/03/04 09:42:33;;;;;;;56.08;25.88;;;;;;;;;;5020452;28;20042;-78
2023/03/04 09:45:10;;;;;;;56.33;26.73;;;;;;;;;;5018262;28;20108;-82
2023/03/04 09:47:37;;;;;;;65.10;28.45;;;;;;;;;;5016322;28;20050;-77
2023/03/04 09:50:08;;;;;;;82.47;34.20;;;;;;;;;;5019462;28;20073;-80
2023/03/04 09:52:42;;;;;;;;;;;;;;;;;;5028216;28;20144;-80
2023/03/04 09:55:20;;;;;;;58.97;27.30;;;;;;;;;;5030573;28;20033;-80
2023/03/04 09:57:52;;;;;;;58.22;30.55;;;;;;;;;;5017488;28;20085;-80
2023/03/04 10:00:22;;;;;;;63.30;28.27;;;;;;;;;;5000024;28;20089;-80
2023/03/04 10:03:12;;;;;;;59.22;27.35;;;;;;;;;;5003308;28;20137;-79
2023/03/04 10:05:45;;;;;;;57.75;27.27;;;;;;;;;;5016110;28;20053;-81
2023/03/04 10:08:40;;;;;;;57.40;27.85;;;;;;;;;;4998953;28;20050;-80
2023/03/04 10:11:14;;;;;;;52.80;25.67;;;;;;;;;;5001343;28;20042;-81
2023/03/04 10:13:47;;;;;;;57.17;26.45;;;;;;;;;;5017109;28;20096;-81
2023/03/04 10:16:19;;;;;;;55.88;26.08;;;;;;;;;;5005155;28;20120;-81
2023/03/04 10:18:49;;;;;;;52.58;24.30;;;;;;;;;;5015369;28;20125;-80
2023/03/04 10:21:23;;;;;;;50.03;21.38;;;;;;;;;;5018823;28;20076;-77
2023/03/04 10:23:49;;;;;;;47.05;22.73;;;;;;;;;;5016584;28;20788;-81
2023/03/04 10:26:19;;;;;;;52.67;23.90;;;;;;;;;;5021499;28;20563;-80
2023/03/04 10:28:46;;;;;;;49.67;23.17;;;;;;;;;;5018324;28;20464;-80
2023/03/04 10:31:21;;;;;;;58.80;26.60;;;;;;;;;;5019766;28;20097;-81
2023/03/04 10:33:48;;;;;;;59.22;26.80;;;;;;;;;;5020761;28;20053;-80
2023/03/04 10:36:36;;;;;;;55.45;26.40;;;;;;;;;;5019188;28;20046;-78
2023/03/04 10:39:07;;;;;;;49.90;24.95;;;;;;;;;;5017476;28;20077;-80
2023/03/04 10:41:34;;;;;;;50.88;24.48;;;;;;;;;;5019385;28;20139;-79
2023/03/04 10:44:02;;;;;;;50.20;24.27;;;;;;;;;;5019295;28;20046;-80
2023/03/04 10:46:29;;;;;;;53.97;26.30;;;;;;;;;;5019396;28;20045;-80
2023/03/04 10:48:56;;;;;;;51.08;24.63;;;;;;;;;;5019018;28;20492;-81
2023/03/04 10:51:26;;;;;;;53.22;26.08;;;;;;;;;;5020947;28;20132;-80
2023/03/04 10:53:58;;;;;;;49.22;23.73;;;;;;;;;;5019716;28;20077;-79
2023/03/04 10:56:39;;;;;;;50.97;25.30;;;;;;;;;;5019763;28;20046;-81
2023/03/04 10:59:39;;;;;;;47.40;22.98;;;;;;;;;;5020096;28;20111;-81
2023/03/04 11:02:17;;;;;;;53.50;23.65;;;;;;;;;;5020719;28;20049;-80
2023/03/04 11:04:50;;;;;;;53.10;23.13;;;;;;;;;;5020614;28;20100;-80
2023/03/04 11:07:18;;;;;;;53.38;24.75;;;;;;;;;;5024936;28;20085;-80
2023/03/04 11:09:45;;;;;;;50.17;23.40;;;;;;;;;;5031757;28;20041;-78
2023/03/04 11:12:13;;;;;;;48.33;24.92;;;;;;;;;;5035124;28;20121;-79
2023/03/04 11:14:44;;;;;;;48.03;24.15;;;;;;;;;;5024641;28;20042;-79
2023/03/04 11:17:23;;;;;;;50.95;23.77;;;;;;;;;;5020102;28;20062;-81
2023/03/04 11:19:55;;;;;;;47.15;23.55;;;;;;;;;;5019391;28;20045;-80
2023/03/04 11:22:24;;;;;;;50.60;25.10;;;;;;;;;;5019702;28;20065;-80
2023/03/04 11:24:58;;;;;;;48.03;22.23;;;;;;;;;;5019660;28;20046;-80
2023/03/04 11:27:36;;;;;;;53.95;22.30;;;;;;;;;;5018693;28;20065;-80
2023/03/04 11:30:24;;;;;;;42.45;20.65;;;;;;;;;;5020487;28;20050;-80
2023/03/04 11:32:52;;;;;;;47.15;22.52;;;;;;;;;;5018931;28;20070;-80
2023/03/04 11:35:25;;;;;;;48.83;22.73;;;;;;;;;;5019872;28;20404;-80
2023/03/04 11:38:00;;;;;;;47.47;24.20;;;;;;;;;;5019839;28;20053;-80
2023/03/04 11:40:33;;;;;;;44.10;21.92;;;;;;;;;;5018286;28;20119;-80
2023/03/04 11:43:06;;;;;;;48.05;23.67;;;;;;;;;;5019249;28;20085;-82
2023/03/04 11:45:49;;;;;;;45.55;23.00;;;;;;;;;;5023562;28;20050;-81
2023/03/04 11:48:35;;;;;;;45.33;22.92;;;;;;;;;;5022159;28;20050;-78
2023/03/04 11:51:08;;;;;;;49.75;23.67;;;;;;;;;;5021662;28;20116;-80
2023/03/04 11:53:50;;;;;;;46.90;21.98;;;;;;;;;;5019925;28;20050;-79
2023/03/04 11:56:30;;;;;;;45.80;22.25;;;;;;;;;;5020287;28;20497;-81
2023/03/04 11:59:30;;;;;;;48.17;23.52;;;;;;;;;;5020875;28;20045;-80
2023/03/04 12:02:10;;;;;;;48.05;23.17;;;;;;;;;;5025083;28;20123;-79
2023/03/04 12:05:15;;;;;;;41.63;22.45;;;;;;;;;;5024455;28;20074;-80
2023/03/04 12:07:56;;;;;;;45.30;22.40;;;;;;;;;;5023794;28;20050;-81
2023/03/04 12:10:30;;;;;;;44.30;21.48;;;;;;;;;;5023484;28;20117;-80
2023/03/04 12:13:25;;;;;;;44.30;21.52;;;;;;;;;;5023581;28;20054;-80
2023/03/04 12:16:04;;;;;;;38.55;20.05;;;;;;;;;;5021979;28;20476;-81
2023/03/04 12:18:41;;;;;;;45.30;21.05;;;;;;;;;;5023948;28;20089;-81
2023/03/04 12:21:19;;;;;;;39.75;20.27;;;;;;;;;;5026008;28;20053;-81
2023/03/04 12:24:06;;;;;;;38.63;19.73;;;;;;;;;;5022615;28;20388;-81
2023/03/04 12:26:40;;;;;;;38.63;18.65;;;;;;;;;;5022683;28;20057;-82
2023/03/04 12:29:15;;;;;;;38.38;20.13;;;;;;;;;;5022093;28;20068;-80
2023/03/04 12:31:43;;;;;;;38.15;20.02;;;;;;;;;;5021276;28;20121;-81
2023/03/04 12:34:33;;;;;;;47.90;23.45;;;;;;;;;;5020797;28;20049;-81
2023/03/04 12:37:27;;;;;;;43.30;20.95;;;;;;;;;;5026363;28;20076;-80
2023/03/04 12:40:16;;;;;;;42.03;21.23;;;;;;;;;;5022008;28;20524;-82
2023/03/04 12:42:58;;;;;;;36.45;19.00;;;;;;;;;;5022265;28;20464;-81
2023/03/04 12:45:28;;;;;;;38.95;19.42;;;;;;;;;;5024197;28;20093;-79
2023/03/04 12:48:02;;;;;;;34.85;18.63;;;;;;;;;;5024603;28;20042;-79
2023/03/04 12:50:39;;;;;;;38.97;18.17;;;;;;;;;;5023699;28;20444;-80
2023/03/04 12:53:17;;;;;;;36.28;18.20;;;;;;;;;;5024889;28;20061;-79
2023/03/04 12:55:46;;;;;;;35.80;17.90;;;;;;;;;;5033317;28;20078;-79
2023/03/04 12:58:18;;;;;;;34.30;17.08;;;;;;;;;;5030393;28;20081;-80
2023/03/04 13:00:51;;;;;;;35.13;17.92;;;;;;;;;;5026940;28;20045;-81
2023/03/04 13:03:23;;;;;;;37.90;18.73;;;;;;;;;;5019758;28;20113;-81
2023/03/04 13:06:02;;;;;;;36.00;18.05;;;;;;;;;;5018778;28;20128;-80
2023/03/04 13:08:36;;;;;;;34.33;17.58;;;;;;;;;;5020213;28;20042;-81
2023/03/04 13:11:24;;;;;;;40.70;18.80;;;;;;;;;;5019308;28;20493;-81
2023/03/04 13:14:03;;;;;;;34.97;17.25;;;;;;;;;;5020156;28;20078;-80
2023/03/04 13:16:32;;;;;;;36.40;18.05;;;;;;;;;;5019950;28;20115;-81
2023/03/04 13:18:59;;;;;;;36.88;18.02;;;;;;;;;;5019281;28;20103;-80
2023/03/04 13:21:27;;;;;;;34.75;18.23;;;;;;;;;;5019535;28;20416;-80
2023/03/04 13:23:54;;;;;;;38.03;19.88;;;;;;;;;;5019210;28;20489;-80
2023/03/04 13:26:28;;;;;;;41.15;19.23;;;;;;;;;;5019513;28;20133;-82
2023/03/04 13:29:30;;;;;;;38.85;18.20;;;;;;;;;;5024720;28;20069;-81
2023/03/04 13:31:59;;;;;;;40.42;20.30;;;;;;;;;;5020899;28;20110;-82
2023/03/04 13:34:43;;;;;;;33.70;17.52;;;;;;;;;;5020019;28;20049;-80
2023/03/04 13:37:26;;;;;;;39.65;19.17;;;;;;;;;;5020479;28;20106;-79
2023/03/04 13:40:27;;;;;;;41.63;20.15;;;;;;;;;;5020296;28;20116;-79
2023/03/04 13:42:53;;;;;;;36.45;18.27;;;;;;;;;;5020568;28;20066;-79
2023/03/04 13:45:34;;;;;;;39.03;18.05;;;;;;;;;;5020047;28;20057;-79
2023/03/04 13:48:02;;;;;;;36.13;18.45;;;;;;;;;;5020127;28;20567;-80
2023/03/04 13:50:34;;;;;;;34.17;17.35;;;;;;;;;;5020016;28;20049;-80
2023/03/04 13:53:16;;;;;;;37.22;17.38;;;;;;;;;;5020040;28;20050;-79
2023/03/04 13:55:43;;;;;;;32.13;16.08;;;;;;;;;;5018759;28;20138;-80
2023/03/04 13:58:18;;;;;;;33.83;17.25;;;;;;;;;;5019753;28;20077;-79
2023/03/04 14:00:51;;;;;;;33.97;16.60;;;;;;;;;;5018753;28;20060;-82
2023/03/04 14:03:24;;;;;;;34.40;16.85;;;;;;;;;;5023717;28;20072;-80
2023/03/04 14:06:10;;;;;;;36.38;16.80;;;;;;;;;;5022290;28;20073;-79
2023/03/04 14:08:37;;;;;;;31.45;16.55;;;;;;;;;;5018484;28;20045;-80
2023/03/04 14:11:04;;;;;;;33.22;16.70;;;;;;;;;;5019203;28;20519;-79
2023/03/04 14:13:31;;;;;;;28.67;16.40;;;;;;;;;;5018669;28;20536;-79
2023/03/04 14:16:00;;;;;;;32.75;15.40;;;;;;;;;;5017612;28;20739;-79
2023/03/04 14:18:28;;;;;;;32.65;17.30;;;;;;;;;;5017849;28;20053;-79
2023/03/04 14:20:57;;;;;;;32.20;16.35;;;;;;;;;;5017750;28;20101;-80
2023/03/04 14:23:27;;;;;;;31.52;15.77;;;;;;;;;;5016784;28;20046;-79
2023/03/04 14:26:04;;;;;;;32.03;15.13;;;;;;;;;;5016533;28;20053;-79
2023/03/04 14:28:31;;;;;;;30.92;15.77;;;;;;;;;;5017286;28;20050;-79
2023/03/04 14:30:59;;;;;;;35.25;17.70;;;;;;;;;;5017328;28;20060;-79
2023/03/04 14:33:28;;;;;;;31.15;15.70;;;;;;;;;;5017545;28;20046;-78
2023/03/04 14:35:57;;;;;;;35.33;16.23;;;;;;;;;;5016575;28;20041;-80
2023/03/04 14:38:28;;;;;;;35.83;16.58;;;;;;;;;;5016697;28;20056;-79